Terminal Aerodrome Forecast
Issued by NWS

Current Version | Previous Version | Graphics & Text | Print | Product List | Glossary On
Versions: 1 2 3 4 5 6 7 8 9 10 11 12 13 14 15 16 17 18
000
FTUS41 KILN 280000 AAA
TAFLCK
TAF AMD
KLCK 280036Z 2801/2824 27012KT P6SM SCT025 BKN080
     FM280200 28012G22KT P6SM SCT035 BKN060
     FM280500 28010KT P6SM BKN050
     FM280900 29009KT P6SM VCSH OVC012
     FM281500 31011KT P6SM -SHRA BKN025
     FM281800 32012G20KT P6SM -SHRA BKN035
     FM282300 33010KT P6SM BKN035=

USA.gov is the U.S. government's official web portal to all federal, state and local government web resources and services.